createdAt,value
2022-08-22T00:03:15.495Z,95.97
2022-08-22T00:08:46.406Z,92.33
2022-08-22T00:18:57.443Z,90.27
2022-08-22T00:29:08.989Z,90.80
2022-08-22T00:39:18.952Z,91.70
2022-08-22T00:49:51.938Z,94.33
2022-08-22T01:00:15.100Z,91.00
2022-08-22T01:10:50.688Z,98.33
2022-08-22T01:21:45.536Z,90.53
2022-08-22T01:32:56.970Z,89.63
2022-08-22T01:43:12.177Z,94.00
2022-08-22T01:53:26.182Z,95.30
2022-08-22T02:03:41.361Z,97.40
2022-08-22T02:13:56.081Z,93.10
2022-08-22T02:24:05.902Z,92.00
2022-08-22T02:34:35.355Z,93.97
2022-08-22T02:44:49.035Z,94.20
2022-08-22T02:54:59.619Z,96.57
2022-08-22T03:05:24.528Z,97.50
2022-08-22T03:15:38.517Z,92.37
2022-08-22T03:25:52.229Z,91.50
2022-08-22T03:36:06.638Z,91.17
2022-08-22T03:47:02.911Z,90.73
2022-08-22T03:57:46.795Z,92.73
2022-08-22T04:08:33.037Z,99.60
2022-08-22T04:19:18.454Z,95.93
2022-08-22T04:29:29.134Z,98.97
2022-08-22T04:39:43.069Z,96.03
2022-08-22T04:49:53.608Z,98.70
2022-08-22T05:00:02.497Z,101.37
2022-08-22T05:10:15.376Z,103.87
2022-08-22T05:20:23.442Z,101.27
2022-08-22T05:30:32.285Z,104.17
2022-08-22T05:40:39.070Z,104.60
2022-08-22T05:50:50.822Z,102.50
2022-08-22T06:01:03.759Z,104.73
2022-08-22T06:11:14.489Z,103.67
2022-08-22T06:21:24.239Z,104.13
2022-08-22T06:31:34.252Z,107.40
2022-08-22T06:41:42.479Z,103.93
2022-08-22T06:51:52.429Z,110.50
2022-08-22T07:02:05.419Z,106.90
2022-08-22T07:12:20.913Z,108.67
2022-08-22T07:22:28.566Z,106.20
2022-08-22T07:32:49.681Z,104.43
2022-08-22T07:43:00.352Z,111.20
2022-08-22T07:53:15.580Z,110.43
2022-08-22T08:03:23.768Z,107.13
2022-08-22T08:13:36.339Z,105.93
2022-08-22T08:23:46.798Z,116.40
2022-08-22T08:34:01.430Z,122.60
2022-08-22T08:44:24.025Z,125.63
2022-08-22T08:54:57.764Z,118.43
2022-08-22T09:05:55.877Z,117.53
2022-08-22T09:16:20.128Z,119.57
2022-08-22T09:26:31.984Z,119.43
2022-08-22T09:37:04.571Z,118.17
2022-08-22T09:47:24.352Z,113.70
2022-08-22T09:57:39.001Z,115.03
2022-08-22T10:08:05.271Z,112.17
2022-08-22T10:18:33.023Z,104.20
2022-08-22T10:28:49.878Z,113.03
2022-08-22T10:38:57.705Z,115.33
2022-08-22T10:49:08.238Z,110.33
2022-08-22T10:59:32.212Z,120.50
2022-08-22T11:09:43.603Z,133.77
2022-08-22T11:20:10.044Z,145.70
2022-08-22T11:30:18.377Z,154.77
2022-08-22T11:40:41.851Z,158.35
2022-08-22T11:50:52.267Z,165.98
2022-08-22T12:01:04.572Z,166.20
2022-08-22T12:11:13.922Z,167.77
2022-08-22T12:22:05.433Z,174.45
2022-08-22T12:33:01.837Z,165.57
2022-08-22T12:43:32.397Z,167.43
2022-08-22T12:54:10.592Z,164.95
2022-08-22T13:04:33.072Z,143.20
2022-08-22T13:14:37.882Z,142.05
2022-08-22T13:24:52.452Z,150.38
2022-08-22T13:34:59.487Z,142.23
2022-08-22T13:45:14.258Z,138.20
2022-08-22T13:55:29.509Z,142.48
2022-08-22T14:05:40.433Z,138.82
2022-08-22T14:15:44.818Z,143.70
2022-08-22T14:25:51.405Z,139.77
2022-08-22T14:36:02.174Z,138.88
2022-08-22T14:46:12.674Z,135.33
2022-08-22T14:56:24.225Z,135.33
2022-08-22T15:06:38.449Z,128.07
2022-08-22T15:16:57.255Z,122.40
2022-08-22T15:27:02.469Z,127.83
2022-08-22T15:37:32.750Z,135.80
2022-08-22T15:47:43.233Z,134.40
2022-08-22T15:58:06.859Z,138.10
2022-08-22T16:08:14.416Z,125.40
2022-08-22T16:19:14.210Z,130.00
2022-08-22T16:29:35.875Z,126.93
2022-08-22T16:39:48.766Z,131.00
2022-08-22T16:50:06.453Z,128.47
2022-08-22T17:00:22.797Z,119.30
2022-08-22T17:10:44.966Z,133.17
2022-08-22T17:20:57.565Z,124.30
2022-08-22T17:31:09.685Z,123.43
2022-08-22T17:41:32.744Z,127.33
2022-08-22T17:51:46.957Z,121.77
2022-08-22T18:01:55.528Z,121.03
2022-08-22T18:12:08.890Z,116.43
2022-08-22T18:22:22.784Z,117.73
2022-08-22T18:32:35.146Z,113.37
2022-08-22T18:42:45.518Z,115.57
2022-08-22T18:52:51.119Z,115.00
2022-08-22T19:03:24.501Z,114.97
2022-08-22T19:14:08.930Z,121.23
2022-08-22T19:24:47.532Z,115.23
2022-08-22T19:35:20.947Z,114.50
2022-08-22T19:45:29.481Z,113.67
2022-08-22T19:55:54.575Z,114.43
2022-08-22T20:06:06.987Z,118.87
2022-08-22T20:16:21.413Z,110.93
2022-08-22T20:26:25.349Z,112.30
2022-08-22T20:36:32.594Z,102.37
2022-08-22T20:47:41.099Z,103.83
2022-08-22T20:57:53.448Z,100.70
2022-08-22T21:08:08.720Z,102.60
2022-08-22T21:18:24.205Z,98.37
2022-08-22T21:28:32.575Z,119.33
2022-08-22T21:38:38.613Z,100.30
2022-08-22T21:48:46.010Z,102.20
2022-08-22T21:58:51.276Z,100.50
2022-08-22T22:08:55.657Z,99.50
2022-08-22T22:19:01.936Z,98.57
2022-08-22T22:29:05.912Z,99.37
2022-08-22T22:39:14.135Z,101.40
2022-08-22T22:49:19.543Z,97.73
2022-08-22T22:59:25.370Z,98.87
2022-08-22T23:09:44.911Z,96.57
2022-08-22T23:20:01.143Z,99.23
2022-08-22T23:30:06.136Z,102.57
2022-08-22T23:40:13.099Z,101.13
2022-08-22T23:50:17.006Z,103.17
